createdAt,value
2022-12-15T00:02:24.388Z,4.32
2022-12-15T00:05:10.355Z,5.60
2022-12-15T00:07:56.229Z,5.38
2022-12-15T00:10:42.064Z,4.90
2022-12-15T00:13:31.967Z,4.72
2022-12-15T00:16:18.445Z,4.63
2022-12-15T00:19:04.470Z,6.07
2022-12-15T00:21:50.658Z,5.10
2022-12-15T00:24:36.553Z,6.00
2022-12-15T00:27:22.386Z,5.05
2022-12-15T00:30:08.353Z,4.90
2022-12-15T00:32:54.307Z,5.68
2022-12-15T00:35:40.210Z,6.30
2022-12-15T00:38:30.652Z,5.15
2022-12-15T00:40:59.630Z,5.80
2022-12-15T00:43:31.406Z,5.63
2022-12-15T00:46:17.891Z,5.65
2022-12-15T00:48:45.252Z,5.10
2022-12-15T00:51:13.648Z,4.35
2022-12-15T00:53:59.336Z,4.68
2022-12-15T00:56:45.303Z,6.05
2022-12-15T00:59:31.384Z,8.25
2022-12-15T01:02:17.434Z,9.63
2022-12-15T01:05:03.463Z,9.48
2022-12-15T01:07:50.042Z,9.23
2022-12-15T01:10:37.041Z,9.05
2022-12-15T01:13:23.514Z,8.68
2022-12-15T01:16:09.546Z,7.55
2022-12-15T01:18:55.404Z,7.15
2022-12-15T01:21:25.520Z,4.38
2022-12-15T01:23:53.250Z,3.80
2022-12-15T01:26:20.612Z,5.20
2022-12-15T01:28:47.948Z,4.32
2022-12-15T01:31:15.245Z,4.05
2022-12-15T01:33:43.751Z,4.63
2022-12-15T01:36:11.189Z,3.97
2022-12-15T01:38:38.553Z,4.00
2022-12-15T01:41:07.542Z,4.43
2022-12-15T01:43:36.501Z,4.22
2022-12-15T01:46:11.010Z,4.32
2022-12-15T01:48:42.138Z,4.80
2022-12-15T01:51:30.867Z,4.75
2022-12-15T01:54:10.217Z,3.40
2022-12-15T01:56:40.238Z,4.47
2022-12-15T01:59:08.831Z,4.15
2022-12-15T02:01:36.595Z,4.47
2022-12-15T02:04:04.359Z,4.15
2022-12-15T02:06:31.595Z,3.33
2022-12-15T02:08:59.575Z,3.75
2022-12-15T02:11:44.843Z,4.13
2022-12-15T02:14:35.545Z,3.40
2022-12-15T02:17:05.747Z,5.45
2022-12-15T02:19:51.209Z,4.45
2022-12-15T02:22:21.685Z,4.45
2022-12-15T02:25:06.318Z,5.40
2022-12-15T02:27:55.636Z,4.57
2022-12-15T02:30:30.305Z,4.18
2022-12-15T02:33:03.869Z,4.78
2022-12-15T02:35:41.721Z,5.13
2022-12-15T02:38:09.475Z,3.92
2022-12-15T02:40:37.509Z,4.90
2022-12-15T02:43:05.375Z,4.85
2022-12-15T02:46:06.416Z,4.32
2022-12-15T02:48:59.820Z,4.43
2022-12-15T02:51:34.334Z,3.38
2022-12-15T02:54:13.871Z,4.25
2022-12-15T02:56:53.376Z,4.60
2022-12-15T02:59:43.032Z,4.60
2022-12-15T03:02:10.390Z,3.53
2022-12-15T03:04:38.224Z,3.53
2022-12-15T03:07:08.490Z,3.92
2022-12-15T03:09:36.517Z,4.63
2022-12-15T03:12:04.483Z,5.20
2022-12-15T03:14:33.389Z,3.75
2022-12-15T03:17:00.858Z,4.90
2022-12-15T03:19:28.353Z,3.83
2022-12-15T03:21:55.706Z,4.25
2022-12-15T03:24:22.943Z,3.33
2022-12-15T03:26:50.320Z,4.20
2022-12-15T03:29:18.065Z,4.63
2022-12-15T03:31:45.454Z,4.13
2022-12-15T03:34:12.674Z,4.13
2022-12-15T03:36:40.007Z,4.68
2022-12-15T03:39:07.255Z,3.08
2022-12-15T03:41:34.929Z,3.65
2022-12-15T03:44:02.220Z,4.47
2022-12-15T03:46:29.680Z,5.03
2022-12-15T03:48:58.594Z,6.20
2022-12-15T03:51:26.291Z,5.20
2022-12-15T03:53:53.768Z,5.97
2022-12-15T03:56:21.038Z,5.70
2022-12-15T03:58:48.297Z,4.78
2022-12-15T04:01:21.723Z,5.50
2022-12-15T04:03:49.140Z,4.63
2022-12-15T04:06:16.500Z,4.68
2022-12-15T04:08:43.985Z,3.22
2022-12-15T04:11:11.214Z,4.78
2022-12-15T04:13:39.263Z,3.47
2022-12-15T04:16:06.684Z,4.07
2022-12-15T04:18:34.924Z,3.10
2022-12-15T04:21:02.146Z,5.25
2022-12-15T04:23:29.944Z,3.90
2022-12-15T04:26:16.299Z,3.83
2022-12-15T04:29:02.498Z,3.63
2022-12-15T04:31:51.996Z,3.92
2022-12-15T04:34:42.258Z,4.05
2022-12-15T04:37:30.242Z,3.78
2022-12-15T04:40:15.995Z,3.92
2022-12-15T04:43:03.700Z,4.20
2022-12-15T04:45:49.750Z,3.80
2022-12-15T04:48:35.659Z,3.33
2022-12-15T04:51:23.662Z,4.63
2022-12-15T04:54:09.995Z,4.80
2022-12-15T04:56:55.928Z,3.85
2022-12-15T04:59:43.671Z,4.57
2022-12-15T05:02:29.708Z,4.28
2022-12-15T05:05:15.687Z,4.55
2022-12-15T05:08:01.894Z,3.25
2022-12-15T05:10:48.079Z,3.85
2022-12-15T05:13:34.219Z,3.25
2022-12-15T05:16:20.290Z,3.92
2022-12-15T05:19:06.425Z,4.15
2022-12-15T05:21:52.248Z,4.57
2022-12-15T05:24:38.126Z,3.80
2022-12-15T05:27:23.905Z,3.28
2022-12-15T05:30:09.842Z,3.88
2022-12-15T05:32:37.106Z,4.57
2022-12-15T05:35:04.952Z,4.30
2022-12-15T05:37:33.219Z,4.07
2022-12-15T05:40:00.445Z,3.67
2022-12-15T05:42:27.662Z,4.70
2022-12-15T05:44:55.246Z,4.05
2022-12-15T05:47:23.630Z,3.38
2022-12-15T05:49:51.305Z,4.70
2022-12-15T05:52:18.562Z,5.07
2022-12-15T05:54:45.887Z,5.57
2022-12-15T05:57:13.161Z,4.50
2022-12-15T05:59:40.378Z,5.47
2022-12-15T06:02:07.651Z,5.20
2022-12-15T06:04:34.995Z,5.07
2022-12-15T06:07:02.369Z,5.60
2022-12-15T06:09:29.888Z,4.47
2022-12-15T06:11:57.255Z,4.28
2022-12-15T06:14:24.466Z,6.20
2022-12-15T06:16:52.004Z,6.05
2022-12-15T06:19:20.021Z,5.38
2022-12-15T06:21:47.394Z,5.30
2022-12-15T06:24:15.200Z,4.95
2022-12-15T06:26:42.597Z,4.57
2022-12-15T06:29:11.047Z,4.25
2022-12-15T06:31:38.530Z,6.03
2022-12-15T06:34:07.306Z,4.40
2022-12-15T06:36:34.773Z,3.90
2022-12-15T06:39:02.754Z,4.78
2022-12-15T06:41:30.791Z,5.88
2022-12-15T06:43:59.608Z,5.22
2022-12-15T06:46:28.057Z,5.82
2022-12-15T06:48:55.611Z,4.50
2022-12-15T06:51:23.270Z,5.13
2022-12-15T06:53:53.913Z,5.57
2022-12-15T06:56:33.722Z,5.28
2022-12-15T06:59:05.122Z,4.72
2022-12-15T07:01:34.511Z,5.72
2022-12-15T07:04:03.331Z,4.80
2022-12-15T07:06:36.475Z,5.93
2022-12-15T07:09:07.596Z,5.18
2022-12-15T07:11:35.729Z,5.75
2022-12-15T07:14:03.196Z,5.35
2022-12-15T07:16:30.675Z,5.07
2022-12-15T07:18:57.997Z,5.10
2022-12-15T07:21:25.263Z,5.15
2022-12-15T07:23:55.973Z,5.60
2022-12-15T07:26:23.994Z,5.60
2022-12-15T07:28:51.442Z,5.78
2022-12-15T07:31:18.681Z,5.15
2022-12-15T07:33:48.463Z,6.03
2022-12-15T07:36:15.963Z,4.80
2022-12-15T07:38:49.932Z,5.82
2022-12-15T07:41:19.265Z,5.47
2022-12-15T07:43:47.746Z,5.70
2022-12-15T07:46:15.772Z,5.13
2022-12-15T07:48:43.048Z,5.47
2022-12-15T07:51:18.732Z,5.75
2022-12-15T07:53:47.920Z,5.45
2022-12-15T07:56:15.607Z,7.28
2022-12-15T07:58:42.999Z,7.30
2022-12-15T08:01:12.290Z,6.78
2022-12-15T08:03:40.522Z,5.53
2022-12-15T08:06:12.351Z,5.43
2022-12-15T08:08:39.942Z,6.60
2022-12-15T08:11:13.426Z,4.93
2022-12-15T08:16:29.078Z,5.65
2022-12-15T08:18:59.055Z,6.25
2022-12-15T08:21:26.260Z,5.90
2022-12-15T08:23:53.540Z,6.03
2022-12-15T08:26:25.198Z,6.63
2022-12-15T08:28:56.057Z,5.93
2022-12-15T08:31:24.221Z,5.47
2022-12-15T08:33:52.382Z,6.10
2022-12-15T08:36:21.117Z,5.60
2022-12-15T08:38:48.339Z,5.53
2022-12-15T08:41:17.554Z,8.45
2022-12-15T08:43:48.583Z,7.35
2022-12-15T08:46:21.436Z,6.57
2022-12-15T08:48:48.910Z,8.00
2022-12-15T08:51:16.365Z,6.57
2022-12-15T08:53:43.967Z,6.43
2022-12-15T08:56:19.120Z,6.85
2022-12-15T08:58:47.301Z,5.30
2022-12-15T09:01:23.290Z,6.60
2022-12-15T09:03:54.534Z,5.95
2022-12-15T09:06:24.309Z,6.60
2022-12-15T09:08:54.936Z,6.55
2022-12-15T09:11:24.347Z,5.97
2022-12-15T09:13:52.316Z,6.35
2022-12-15T09:16:20.659Z,5.47
2022-12-15T09:18:49.678Z,5.30
2022-12-15T09:21:17.427Z,4.85
2022-12-15T09:23:51.947Z,5.95
2022-12-15T09:26:21.096Z,5.55
2022-12-15T09:28:50.640Z,5.68
2022-12-15T09:31:23.196Z,5.88
2022-12-15T09:33:51.709Z,6.55
2022-12-15T09:36:20.189Z,7.78
2022-12-15T09:38:48.391Z,7.57
2022-12-15T09:41:15.704Z,6.45
2022-12-15T09:44:21.311Z,6.20
2022-12-15T09:47:11.984Z,5.75
2022-12-15T09:49:51.252Z,5.65
2022-12-15T09:52:20.797Z,4.63
2022-12-15T09:54:48.276Z,5.95
2022-12-15T09:57:31.452Z,6.43
2022-12-15T10:00:10.101Z,6.70
2022-12-15T10:02:47.373Z,5.75
2022-12-15T10:06:06.051Z,5.85
2022-12-15T10:08:24.866Z,5.30
2022-12-15T10:10:55.286Z,5.90
2022-12-15T10:13:56.291Z,5.95
2022-12-15T10:16:46.870Z,6.05
2022-12-15T10:19:37.424Z,5.13
2022-12-15T10:22:04.786Z,5.40
2022-12-15T10:27:38.659Z,5.50
2022-12-15T10:30:08.985Z,5.78
2022-12-15T10:32:51.203Z,7.05
2022-12-15T10:35:32.873Z,5.45
2022-12-15T10:38:27.265Z,6.85
2022-12-15T10:41:01.602Z,5.97
2022-12-15T10:43:35.782Z,5.95
2022-12-15T10:46:23.948Z,6.68
2022-12-15T10:48:59.389Z,5.57
2022-12-15T10:51:42.486Z,5.55
2022-12-15T10:54:10.004Z,5.00
2022-12-15T10:56:54.890Z,6.30
2022-12-15T10:59:24.711Z,4.72
2022-12-15T11:01:52.448Z,5.78
2022-12-15T11:04:32.557Z,5.93
2022-12-15T11:07:01.522Z,5.78
2022-12-15T11:09:38.939Z,6.57
2022-12-15T11:12:37.720Z,5.30
2022-12-15T11:15:23.412Z,5.97
2022-12-15T11:18:03.961Z,5.68
2022-12-15T11:20:37.548Z,5.80
2022-12-15T11:23:16.694Z,5.78
2022-12-15T11:25:46.508Z,6.13
2022-12-15T11:28:24.496Z,4.88
2022-12-15T11:30:57.931Z,5.95
2022-12-15T11:33:25.420Z,6.38
2022-12-15T11:36:13.752Z,5.55
2022-12-15T11:38:47.455Z,6.00
2022-12-15T11:41:45.113Z,6.18
2022-12-15T11:44:30.223Z,5.95
2022-12-15T11:47:10.040Z,5.88
2022-12-15T11:49:41.518Z,5.90
2022-12-15T11:52:20.789Z,6.63
2022-12-15T11:54:52.580Z,5.85
2022-12-15T11:57:42.657Z,6.38
2022-12-15T12:00:22.191Z,6.40
2022-12-15T12:02:58.347Z,6.18
2022-12-15T12:05:43.413Z,6.43
2022-12-15T12:08:20.110Z,6.32
2022-12-15T12:11:13.105Z,7.32
2022-12-15T12:14:12.033Z,5.65
2022-12-15T12:16:55.350Z,6.90
2022-12-15T12:19:42.394Z,6.57
2022-12-15T12:22:20.946Z,6.57
2022-12-15T12:24:50.855Z,6.93
2022-12-15T12:27:29.247Z,7.15
2022-12-15T12:30:03.756Z,6.93
2022-12-15T12:33:05.718Z,7.93
2022-12-15T12:35:40.968Z,7.45
2022-12-15T12:38:12.057Z,6.88
2022-12-15T12:41:01.220Z,6.85
2022-12-15T12:43:32.937Z,7.05
2022-12-15T12:46:10.161Z,7.53
2022-12-15T12:48:40.548Z,7.35
2022-12-15T12:51:26.405Z,7.70
2022-12-15T12:53:53.664Z,8.48
2022-12-15T12:56:38.776Z,7.88
2022-12-15T12:59:30.948Z,7.93
2022-12-15T13:02:15.811Z,8.80
2022-12-15T13:04:57.441Z,9.07
2022-12-15T13:07:38.746Z,10.02
2022-12-15T13:12:53.727Z,8.98
2022-12-15T13:15:27.821Z,8.68
2022-12-15T13:18:24.474Z,7.95
2022-12-15T13:20:55.700Z,6.82
2022-12-15T13:23:25.908Z,6.68
2022-12-15T13:25:55.915Z,7.18
2022-12-15T13:28:39.218Z,6.83
2022-12-15T13:31:21.714Z,7.28
2022-12-15T13:33:49.181Z,6.22
2022-12-15T13:36:41.324Z,6.40
2022-12-15T13:39:11.378Z,7.00
2022-12-15T13:42:00.186Z,7.72
2022-12-15T13:44:35.295Z,7.20
2022-12-15T13:47:26.636Z,7.80
2022-12-15T13:50:14.756Z,7.90
2022-12-15T13:53:17.188Z,6.47
2022-12-15T13:55:38.245Z,6.90
2022-12-15T13:58:07.524Z,6.40
2022-12-15T14:00:36.216Z,6.32
2022-12-15T14:03:07.122Z,6.30
2022-12-15T14:05:34.424Z,7.45
2022-12-15T14:08:09.588Z,6.53
2022-12-15T14:11:46.067Z,6.05
2022-12-15T14:14:02.138Z,5.90
2022-12-15T14:16:31.312Z,5.95
2022-12-15T14:19:14.594Z,6.45
2022-12-15T14:21:57.792Z,6.90
2022-12-15T14:24:41.136Z,6.22
2022-12-15T14:27:08.740Z,5.63
2022-12-15T14:29:36.088Z,6.45
2022-12-15T14:32:05.775Z,6.78
2022-12-15T14:34:37.062Z,8.02
2022-12-15T14:37:07.842Z,7.85
2022-12-15T14:39:39.642Z,7.63
2022-12-15T14:42:07.598Z,6.03
2022-12-15T14:44:39.181Z,7.88
2022-12-15T14:47:08.562Z,7.20
2022-12-15T14:49:40.748Z,7.45
2022-12-15T14:52:12.676Z,7.40
2022-12-15T14:54:49.569Z,8.57
2022-12-15T14:57:20.597Z,9.20
2022-12-15T14:59:54.507Z,9.27
2022-12-15T15:02:25.282Z,10.13
2022-12-15T15:04:56.979Z,9.85
2022-12-15T15:07:24.368Z,10.00
2022-12-15T15:09:51.619Z,10.38
2022-12-15T15:12:20.575Z,9.80
2022-12-15T15:15:04.975Z,9.43
2022-12-15T15:17:36.405Z,8.35
2022-12-15T15:22:39.777Z,7.73
2022-12-15T15:25:27.966Z,8.90
2022-12-15T15:28:17.496Z,8.75
2022-12-15T15:30:49.198Z,8.45
2022-12-15T15:33:16.812Z,8.30
2022-12-15T15:35:44.499Z,8.88
2022-12-15T15:38:20.537Z,8.77
2022-12-15T15:40:58.969Z,6.40
2022-12-15T15:43:27.291Z,7.68
2022-12-15T15:46:03.019Z,7.18
2022-12-15T15:48:32.383Z,8.35
2022-12-15T15:51:00.078Z,8.75
2022-12-15T15:53:27.475Z,8.60
2022-12-15T15:55:54.780Z,9.50
2022-12-15T15:58:22.268Z,6.97
2022-12-15T16:00:49.646Z,7.90
2022-12-15T16:03:17.111Z,7.65
2022-12-15T16:05:44.571Z,9.80
2022-12-15T16:08:17.068Z,8.68
2022-12-15T16:10:47.283Z,9.18
2022-12-15T16:13:20.792Z,8.68
2022-12-15T16:15:51.295Z,10.38
2022-12-15T16:18:18.531Z,10.52
2022-12-15T16:20:47.633Z,10.32
2022-12-15T16:23:16.626Z,9.77
2022-12-15T16:25:50.830Z,10.30
2022-12-15T16:28:23.653Z,9.50
2022-12-15T16:30:51.167Z,9.27
2022-12-15T16:33:19.614Z,9.40
2022-12-15T16:35:49.549Z,10.38
2022-12-15T16:38:30.482Z,11.07
2022-12-15T16:40:59.040Z,10.93
2022-12-15T16:43:31.482Z,10.40
2022-12-15T16:46:03.583Z,10.82
2022-12-15T16:48:31.544Z,11.90
2022-12-15T16:50:59.346Z,13.18
2022-12-15T16:53:28.752Z,11.40
2022-12-15T16:55:57.387Z,10.63
2022-12-15T16:58:26.259Z,10.85
2022-12-15T17:00:56.529Z,11.95
2022-12-15T17:03:26.027Z,9.57
2022-12-15T17:05:55.645Z,9.15
2022-12-15T17:08:57.582Z,9.77
2022-12-15T17:11:25.655Z,7.80
2022-12-15T17:13:54.088Z,9.25
2022-12-15T17:16:23.335Z,8.50
2022-12-15T17:18:51.594Z,7.43
2022-12-15T17:21:27.091Z,9.55
2022-12-15T17:23:59.767Z,9.98
2022-12-15T17:26:29.868Z,7.93
2022-12-15T17:29:06.500Z,8.02
2022-12-15T17:31:35.995Z,7.00
2022-12-15T17:34:28.338Z,8.07
2022-12-15T17:36:57.062Z,9.48
2022-12-15T17:39:24.361Z,7.50
2022-12-15T17:42:00.837Z,9.45
2022-12-15T17:44:36.843Z,9.00
2022-12-15T17:47:07.055Z,8.10
2022-12-15T17:49:37.589Z,9.90
2022-12-15T17:54:51.292Z,9.30
2022-12-15T17:57:18.595Z,9.57
2022-12-15T17:59:45.890Z,9.85
2022-12-15T18:02:14.352Z,12.90
2022-12-15T18:04:41.911Z,12.75
2022-12-15T18:07:14.443Z,11.18
2022-12-15T18:09:42.098Z,12.25
2022-12-15T18:12:20.019Z,9.85
2022-12-15T18:14:47.937Z,9.73
2022-12-15T18:17:15.212Z,10.07
2022-12-15T18:19:42.593Z,9.20
2022-12-15T18:22:19.211Z,10.10
2022-12-15T18:24:46.703Z,9.15
2022-12-15T18:27:20.863Z,9.05
2022-12-15T18:29:48.066Z,9.50
2022-12-15T18:32:17.391Z,8.63
2022-12-15T18:34:44.688Z,9.57
2022-12-15T18:37:19.840Z,7.78
2022-12-15T18:39:47.288Z,9.23
2022-12-15T18:42:16.225Z,10.38
2022-12-15T18:44:52.936Z,9.90
2022-12-15T18:47:22.703Z,11.40
2022-12-15T18:49:50.112Z,13.40
2022-12-15T18:52:24.163Z,13.00
2022-12-15T18:54:52.263Z,14.95
2022-12-15T18:57:30.495Z,11.75
2022-12-15T19:00:09.827Z,14.77
2022-12-15T19:02:37.208Z,13.70
2022-12-15T19:05:04.764Z,13.02
2022-12-15T19:07:32.823Z,11.65
2022-12-15T19:10:00.946Z,9.52
2022-12-15T19:12:28.315Z,11.60
2022-12-15T19:14:55.565Z,8.35
2022-12-15T19:17:41.910Z,8.90
2022-12-15T19:20:37.314Z,9.60
2022-12-15T19:23:05.193Z,9.32
2022-12-15T19:25:32.676Z,9.23
2022-12-15T19:28:00.365Z,9.65
2022-12-15T19:30:37.016Z,10.23
2022-12-15T19:33:09.075Z,11.85
2022-12-15T19:35:37.195Z,9.48
2022-12-15T19:38:04.597Z,11.23
2022-12-15T19:40:32.692Z,11.00
2022-12-15T19:43:00.465Z,12.57
2022-12-15T19:45:31.652Z,11.50
2022-12-15T19:50:31.340Z,10.13
2022-12-15T19:53:00.200Z,9.52
2022-12-15T19:55:33.146Z,12.18
2022-12-15T19:58:01.055Z,12.75
2022-12-15T20:00:29.433Z,13.02
2022-12-15T20:02:57.177Z,13.35
2022-12-15T20:05:24.797Z,13.00
2022-12-15T20:07:53.712Z,12.10
2022-12-15T20:10:27.622Z,11.48
2022-12-15T20:12:57.039Z,12.93
2022-12-15T20:15:25.546Z,12.57
2022-12-15T20:17:57.773Z,12.02
2022-12-15T20:20:26.838Z,13.82
2022-12-15T20:22:56.483Z,12.38
2022-12-15T20:25:29.335Z,12.90
2022-12-15T20:27:56.982Z,12.63
2022-12-15T20:30:25.871Z,10.68
2022-12-15T20:32:53.343Z,13.00
2022-12-15T20:35:21.524Z,13.68
2022-12-15T20:37:48.859Z,14.35
2022-12-15T20:40:17.597Z,13.20
2022-12-15T20:42:45.023Z,14.63
2022-12-15T20:45:14.203Z,13.48
2022-12-15T20:47:41.881Z,14.23
2022-12-15T20:50:42.114Z,13.60
2022-12-15T20:53:20.783Z,12.85
2022-12-15T20:55:49.063Z,14.35
2022-12-15T20:58:16.964Z,13.57
2022-12-15T21:00:44.729Z,14.52
2022-12-15T21:03:16.831Z,15.70
2022-12-15T21:05:44.346Z,14.65
2022-12-15T21:08:24.716Z,14.23
2022-12-15T21:10:53.824Z,15.43
2022-12-15T21:13:29.393Z,16.15
2022-12-15T21:15:58.149Z,14.30
2022-12-15T21:19:17.906Z,10.60
2022-12-15T21:21:20.920Z,11.52
2022-12-15T21:23:48.643Z,12.40
2022-12-15T21:26:20.362Z,10.65
2022-12-15T21:28:48.758Z,10.80
2022-12-15T21:31:18.962Z,10.48
2022-12-15T21:33:47.138Z,9.88
2022-12-15T21:36:15.866Z,9.52
2022-12-15T21:38:44.328Z,10.70
2022-12-15T21:41:16.144Z,10.65
2022-12-15T21:43:43.582Z,10.55
2022-12-15T21:46:26.095Z,9.38
2022-12-15T21:49:14.343Z,10.80
2022-12-15T21:51:52.013Z,9.32
2022-12-15T21:54:28.808Z,10.48
2022-12-15T21:57:01.063Z,10.85
2022-12-15T21:59:30.199Z,9.80
2022-12-15T22:01:57.558Z,9.63
2022-12-15T22:04:32.499Z,10.45
2022-12-15T22:06:59.932Z,10.30
2022-12-15T22:09:27.237Z,8.77
2022-12-15T22:11:54.854Z,8.95
2022-12-15T22:14:40.873Z,8.73
2022-12-15T22:17:26.672Z,9.10
2022-12-15T22:19:54.074Z,8.35
2022-12-15T22:22:24.675Z,7.07
2022-12-15T22:24:54.793Z,9.02
2022-12-15T22:27:22.458Z,8.77
2022-12-15T22:29:50.206Z,9.23
2022-12-15T22:32:17.682Z,9.95
2022-12-15T22:34:45.217Z,8.82
2022-12-15T22:37:12.551Z,10.77
2022-12-15T22:39:39.870Z,11.55
2022-12-15T22:42:07.424Z,10.32
2022-12-15T22:44:37.198Z,10.82
2022-12-15T22:47:05.177Z,10.25
2022-12-15T22:49:34.777Z,10.55
2022-12-15T22:52:02.108Z,10.40
2022-12-15T22:54:31.945Z,8.82
2022-12-15T22:57:00.767Z,9.10
2022-12-15T22:59:32.545Z,9.27
2022-12-15T23:02:02.081Z,9.13
2022-12-15T23:04:30.428Z,9.88
2022-12-15T23:06:59.117Z,8.50
2022-12-15T23:09:26.380Z,8.57
2022-12-15T23:11:53.811Z,9.13
2022-12-15T23:14:42.611Z,9.63
2022-12-15T23:17:09.866Z,8.02
2022-12-15T23:19:37.298Z,8.38
2022-12-15T23:22:04.833Z,9.25
2022-12-15T23:24:32.662Z,9.50
2022-12-15T23:26:59.963Z,9.77
2022-12-15T23:29:27.360Z,9.25
2022-12-15T23:31:54.657Z,9.52
2022-12-15T23:34:21.968Z,10.40
2022-12-15T23:36:53.041Z,9.55
2022-12-15T23:39:20.489Z,8.98
2022-12-15T23:41:47.757Z,10.73
2022-12-15T23:44:15.078Z,8.60
2022-12-15T23:46:42.627Z,11.40
2022-12-15T23:49:10.081Z,16.38
2022-12-15T23:51:37.294Z,15.40
2022-12-15T23:54:04.617Z,16.58
2022-12-15T23:56:31.860Z,15.60
2022-12-15T23:58:59.338Z,15.20
